sensor_id;sensor_type;location;lat;lon;timestamp;pressure;altitude;pressure_sealevel;temperature;humidity
63708;BME280;67643;-34.198;22.084;2023-03-18T00:00:32;99508.67;;;23.33;47.62
63708;BME280;67643;-34.198;22.084;2023-03-18T00:03:00;99505.46;;;23.65;47.81
63708;BME280;67643;-34.198;22.084;2023-03-18T00:05:28;99499.98;;;23.07;47.94
63708;BME280;67643;-34.198;22.084;2023-03-18T00:07:56;99496.10;;;23.56;47.85
63708;BME280;67643;-34.198;22.084;2023-03-18T00:10:25;99492.54;;;23.34;47.79
63708;BME280;67643;-34.198;22.084;2023-03-18T00:12:54;99487.82;;;23.36;47.70
63708;BME280;67643;-34.198;22.084;2023-03-18T00:15:22;99482.87;;;22.98;47.86
63708;BME280;67643;-34.198;22.084;2023-03-18T00:17:51;99480.97;;;23.21;47.85
63708;BME280;67643;-34.198;22.084;2023-03-18T00:20:19;99481.23;;;23.17;47.90
63708;BME280;67643;-34.198;22.084;2023-03-18T00:22:47;99475.47;;;23.48;47.74
63708;BME280;67643;-34.198;22.084;2023-03-18T00:25:16;99474.38;;;23.14;47.93
63708;BME280;67643;-34.198;22.084;2023-03-18T00:27:44;99473.24;;;23.43;47.69
63708;BME280;67643;-34.198;22.084;2023-03-18T00:30:13;99473.16;;;22.89;47.78
63708;BME280;67643;-34.198;22.084;2023-03-18T00:32:42;99477.28;;;23.29;47.91
63708;BME280;67643;-34.198;22.084;2023-03-18T00:35:10;99475.17;;;23.03;48.36
63708;BME280;67643;-34.198;22.084;2023-03-18T00:37:39;99477.87;;;23.00;48.03
63708;BME280;67643;-34.198;22.084;2023-03-18T00:40:10;99477.26;;;23.39;47.80
63708;BME280;67643;-34.198;22.084;2023-03-18T00:42:40;99474.50;;;23.25;47.60
63708;BME280;67643;-34.198;22.084;2023-03-18T00:45:10;99468.54;;;23.17;47.73
63708;BME280;67643;-34.198;22.084;2023-03-18T00:47:39;99463.63;;;23.16;48.02
63708;BME280;67643;-34.198;22.084;2023-03-18T00:50:08;99454.72;;;23.37;47.71
63708;BME280;67643;-34.198;22.084;2023-03-18T00:52:37;99448.95;;;23.13;48.16
63708;BME280;67643;-34.198;22.084;2023-03-18T00:55:07;99449.76;;;23.40;47.63
63708;BME280;67643;-34.198;22.084;2023-03-18T00:57:35;99449.13;;;23.43;47.66
63708;BME280;67643;-34.198;22.084;2023-03-18T01:00:05;99450.74;;;23.06;47.90
63708;BME280;67643;-34.198;22.084;2023-03-18T01:02:35;99453.08;;;23.10;47.84
63708;BME280;67643;-34.198;22.084;2023-03-18T01:05:03;99455.26;;;23.60;47.35
63708;BME280;67643;-34.198;22.084;2023-03-18T01:07:32;99463.49;;;23.74;47.16
63708;BME280;67643;-34.198;22.084;2023-03-18T01:10:00;99462.94;;;23.77;47.10
63708;BME280;67643;-34.198;22.084;2023-03-18T01:12:29;99461.73;;;23.86;47.03
63708;BME280;67643;-34.198;22.084;2023-03-18T01:14:57;99458.97;;;23.66;46.90
63708;BME280;67643;-34.198;22.084;2023-03-18T01:17:26;99455.10;;;23.69;46.82
63708;BME280;67643;-34.198;22.084;2023-03-18T01:19:54;99448.74;;;23.40;46.90
63708;BME280;67643;-34.198;22.084;2023-03-18T01:22:22;99443.72;;;23.38;46.97
63708;BME280;67643;-34.198;22.084;2023-03-18T01:24:51;99443.28;;;23.34;46.92
63708;BME280;67643;-34.198;22.084;2023-03-18T01:27:19;99443.46;;;23.78;47.09
63708;BME280;67643;-34.198;22.084;2023-03-18T01:29:47;99446.03;;;23.62;46.55
63708;BME280;67643;-34.198;22.084;2023-03-18T01:32:16;99444.70;;;23.39;46.91
63708;BME280;67643;-34.198;22.084;2023-03-18T01:34:44;99449.69;;;23.65;46.90
63708;BME280;67643;-34.198;22.084;2023-03-18T01:37:13;99452.78;;;23.66;46.89
63708;BME280;67643;-34.198;22.084;2023-03-18T01:39:41;99450.67;;;23.72;46.79
63708;BME280;67643;-34.198;22.084;2023-03-18T01:42:09;99450.62;;;23.61;46.93
63708;BME280;67643;-34.198;22.084;2023-03-18T01:44:38;99449.34;;;23.62;46.86
63708;BME280;67643;-34.198;22.084;2023-03-18T01:47:07;99450.64;;;23.77;46.94
63708;BME280;67643;-34.198;22.084;2023-03-18T01:49:37;99448.67;;;23.59;46.91
63708;BME280;67643;-34.198;22.084;2023-03-18T01:52:09;99447.96;;;23.57;46.88
63708;BME280;67643;-34.198;22.084;2023-03-18T01:54:40;99448.22;;;23.56;46.80
63708;BME280;67643;-34.198;22.084;2023-03-18T01:57:10;99452.19;;;23.90;46.67
63708;BME280;67643;-34.198;22.084;2023-03-18T01:59:40;99453.38;;;23.53;46.76
63708;BME280;67643;-34.198;22.084;2023-03-18T03:08:15;99460.60;;;19.82;59.29
63708;BME280;67643;-34.198;22.084;2023-03-18T03:10:43;99463.36;;;21.02;55.08
63708;BME280;67643;-34.198;22.084;2023-03-18T03:13:12;99463.53;;;21.66;52.23
63708;BME280;67643;-34.198;22.084;2023-03-18T03:15:40;99465.07;;;21.98;50.94
63708;BME280;67643;-34.198;22.084;2023-03-18T03:18:09;99467.60;;;22.83;49.36
63708;BME280;67643;-34.198;22.084;2023-03-18T03:20:38;99470.07;;;22.33;49.21
63708;BME280;67643;-34.198;22.084;2023-03-18T03:23:07;99472.03;;;22.93;48.17
63708;BME280;67643;-34.198;22.084;2023-03-18T03:25:37;99475.87;;;22.84;48.52
63708;BME280;67643;-34.198;22.084;2023-03-18T03:28:06;99478.88;;;22.99;47.65
63708;BME280;67643;-34.198;22.084;2023-03-18T03:30:35;99481.23;;;23.20;47.68
63708;BME280;67643;-34.198;22.084;2023-03-18T03:33:03;99484.40;;;23.33;47.27
63708;BME280;67643;-34.198;22.084;2023-03-18T03:35:33;99482.47;;;22.96;47.53
63708;BME280;67643;-34.198;22.084;2023-03-18T03:38:01;99483.92;;;22.72;47.57
63708;BME280;67643;-34.198;22.084;2023-03-18T03:40:29;99484.80;;;22.94;47.68
63708;BME280;67643;-34.198;22.084;2023-03-18T03:42:58;99487.40;;;23.25;46.80
63708;BME280;67643;-34.198;22.084;2023-03-18T03:45:27;99493.21;;;23.21;46.82
63708;BME280;67643;-34.198;22.084;2023-03-18T03:47:55;99494.42;;;23.21;46.65
63708;BME280;67643;-34.198;22.084;2023-03-18T03:50:23;99493.65;;;23.20;46.86
63708;BME280;67643;-34.198;22.084;2023-03-18T03:52:52;99497.46;;;22.78;47.69
63708;BME280;67643;-34.198;22.084;2023-03-18T03:55:21;99496.98;;;22.48;48.16
63708;BME280;67643;-34.198;22.084;2023-03-18T03:57:50;99502.68;;;22.85;47.57
63708;BME280;67643;-34.198;22.084;2023-03-18T04:00:21;99501.71;;;22.71;48.07
63708;BME280;67643;-34.198;22.084;2023-03-18T04:02:51;99501.44;;;23.09;47.57
63708;BME280;67643;-34.198;22.084;2023-03-18T04:05:22;99502.77;;;22.54;48.10
63708;BME280;67643;-34.198;22.084;2023-03-18T04:07:51;99504.20;;;23.20;47.35
63708;BME280;67643;-34.198;22.084;2023-03-18T04:10:21;99504.34;;;23.23;47.07
63708;BME280;67643;-34.198;22.084;2023-03-18T04:12:50;99507.78;;;22.76;47.78
63708;BME280;67643;-34.198;22.084;2023-03-18T04:15:19;99510.53;;;22.98;47.51
63708;BME280;67643;-34.198;22.084;2023-03-18T04:17:48;99507.19;;;22.64;47.50
63708;BME280;67643;-34.198;22.084;2023-03-18T04:20:17;99507.71;;;23.21;47.04
63708;BME280;67643;-34.198;22.084;2023-03-18T04:22:46;99506.08;;;23.35;46.73
63708;BME280;67643;-34.198;22.084;2023-03-18T04:25:15;99501.70;;;23.36;46.76
63708;BME280;67643;-34.198;22.084;2023-03-18T04:27:44;99496.47;;;23.09;47.25
63708;BME280;67643;-34.198;22.084;2023-03-18T04:30:13;99494.94;;;22.83;47.37
63708;BME280;67643;-34.198;22.084;2023-03-18T04:32:41;99492.40;;;23.16;47.24
63708;BME280;67643;-34.198;22.084;2023-03-18T04:35:10;99494.91;;;23.19;47.13
63708;BME280;67643;-34.198;22.084;2023-03-18T04:37:39;99493.43;;;23.03;47.51
63708;BME280;67643;-34.198;22.084;2023-03-18T04:40:08;99492.01;;;22.76;47.69
63708;BME280;67643;-34.198;22.084;2023-03-18T04:42:37;99490.86;;;22.65;47.56
63708;BME280;67643;-34.198;22.084;2023-03-18T04:45:07;99492.18;;;23.44;46.73
63708;BME280;67643;-34.198;22.084;2023-03-18T04:47:35;99498.83;;;23.08;47.49
63708;BME280;67643;-34.198;22.084;2023-03-18T04:50:04;99505.62;;;22.95;47.69
63708;BME280;67643;-34.198;22.084;2023-03-18T04:52:33;99507.81;;;22.25;48.90
63708;BME280;67643;-34.198;22.084;2023-03-18T04:55:02;99511.48;;;22.82;48.00
63708;BME280;67643;-34.198;22.084;2023-03-18T04:57:31;99514.39;;;22.77;47.77
63708;BME280;67643;-34.198;22.084;2023-03-18T04:59:59;99512.30;;;22.47;48.64
63708;BME280;67643;-34.198;22.084;2023-03-18T05:02:28;99514.83;;;22.59;48.67
63708;BME280;67643;-34.198;22.084;2023-03-18T05:04:56;99516.71;;;22.16;49.56
63708;BME280;67643;-34.198;22.084;2023-03-18T05:07:25;99524.05;;;22.18;50.20
63708;BME280;67643;-34.198;22.084;2023-03-18T05:09:54;99529.73;;;22.55;49.29
63708;BME280;67643;-34.198;22.084;2023-03-18T05:12:23;99530.58;;;22.66;49.09
63708;BME280;67643;-34.198;22.084;2023-03-18T05:14:51;99528.60;;;22.68;49.42
63708;BME280;67643;-34.198;22.084;2023-03-18T05:17:19;99526.99;;;22.21;50.19
63708;BME280;67643;-34.198;22.084;2023-03-18T05:19:48;99532.30;;;22.75;49.58
63708;BME280;67643;-34.198;22.084;2023-03-18T05:22:19;99535.97;;;23.02;49.11
63708;BME280;67643;-34.198;22.084;2023-03-18T05:24:48;99542.76;;;22.55;49.81
63708;BME280;67643;-34.198;22.084;2023-03-18T05:27:18;99551.76;;;22.97;49.34
63708;BME280;67643;-34.198;22.084;2023-03-18T05:29:47;99548.18;;;22.84;49.48
63708;BME280;67643;-34.198;22.084;2023-03-18T05:32:16;99541.62;;;22.37;50.20
63708;BME280;67643;-34.198;22.084;2023-03-18T05:34:44;99545.08;;;22.85;49.05
63708;BME280;67643;-34.198;22.084;2023-03-18T05:37:14;99549.32;;;23.00;48.86
63708;BME280;67643;-34.198;22.084;2023-03-18T05:39:43;99549.82;;;22.91;48.95
63708;BME280;67643;-34.198;22.084;2023-03-18T05:42:12;99547.25;;;22.64;49.44
63708;BME280;67643;-34.198;22.084;2023-03-18T05:44:41;99546.47;;;22.30;50.07
63708;BME280;67643;-34.198;22.084;2023-03-18T05:47:09;99545.46;;;22.45;49.29
63708;BME280;67643;-34.198;22.084;2023-03-18T05:49:38;99546.23;;;22.79;48.82
63708;BME280;67643;-34.198;22.084;2023-03-18T05:52:07;99552.75;;;22.72;48.72
63708;BME280;67643;-34.198;22.084;2023-03-18T05:54:35;99563.19;;;23.21;48.34
63708;BME280;67643;-34.198;22.084;2023-03-18T05:57:04;99568.08;;;22.90;48.35
63708;BME280;67643;-34.198;22.084;2023-03-18T05:59:32;99568.74;;;22.77;49.07
63708;BME280;67643;-34.198;22.084;2023-03-18T06:02:01;99572.25;;;22.46;48.95
63708;BME280;67643;-34.198;22.084;2023-03-18T06:04:29;99574.75;;;22.22;49.05
63708;BME280;67643;-34.198;22.084;2023-03-18T06:06:58;99575.86;;;22.71;48.91
63708;BME280;67643;-34.198;22.084;2023-03-18T06:09:26;99579.39;;;22.57;48.91
63708;BME280;67643;-34.198;22.084;2023-03-18T06:11:55;99579.64;;;22.55;48.86
63708;BME280;67643;-34.198;22.084;2023-03-18T06:14:24;99580.11;;;22.64;48.63
63708;BME280;67643;-34.198;22.084;2023-03-18T06:16:53;99574.99;;;22.91;48.09
63708;BME280;67643;-34.198;22.084;2023-03-18T06:19:21;99575.17;;;22.95;47.76
63708;BME280;67643;-34.198;22.084;2023-03-18T06:21:50;99578.76;;;22.91;47.93
63708;BME280;67643;-34.198;22.084;2023-03-18T06:24:19;99573.03;;;22.85;48.03
63708;BME280;67643;-34.198;22.084;2023-03-18T06:26:47;99572.67;;;23.09;47.49
63708;BME280;67643;-34.198;22.084;2023-03-18T06:29:16;99572.42;;;23.06;48.19
63708;BME280;67643;-34.198;22.084;2023-03-18T06:31:44;99577.15;;;22.78;47.88
63708;BME280;67643;-34.198;22.084;2023-03-18T06:34:13;99572.84;;;22.57;48.08
63708;BME280;67643;-34.198;22.084;2023-03-18T06:36:41;99573.05;;;22.71;48.29
63708;BME280;67643;-34.198;22.084;2023-03-18T06:39:09;99578.86;;;23.17;47.11
63708;BME280;67643;-34.198;22.084;2023-03-18T06:41:38;99579.89;;;23.10;47.22
63708;BME280;67643;-34.198;22.084;2023-03-18T06:44:07;99582.72;;;23.18;47.09
63708;BME280;67643;-34.198;22.084;2023-03-18T06:46:35;99592.74;;;23.00;47.52
63708;BME280;67643;-34.198;22.084;2023-03-18T06:49:03;99602.16;;;23.24;46.87
63708;BME280;67643;-34.198;22.084;2023-03-18T06:51:32;99601.98;;;22.99;47.72
63708;BME280;67643;-34.198;22.084;2023-03-18T06:54:00;99606.93;;;23.01;47.54
63708;BME280;67643;-34.198;22.084;2023-03-18T06:56:29;99609.59;;;23.29;47.17
63708;BME280;67643;-34.198;22.084;2023-03-18T06:58:57;99610.33;;;23.67;46.71
63708;BME280;67643;-34.198;22.084;2023-03-18T07:01:26;99610.33;;;23.06;47.02
63708;BME280;67643;-34.198;22.084;2023-03-18T07:03:54;99611.01;;;23.55;46.45
63708;BME280;67643;-34.198;22.084;2023-03-18T07:06:23;99611.60;;;23.53;46.81
63708;BME280;67643;-34.198;22.084;2023-03-18T07:08:51;99607.24;;;23.55;46.08
63708;BME280;67643;-34.198;22.084;2023-03-18T07:11:20;99607.93;;;23.19;46.13
63708;BME280;67643;-34.198;22.084;2023-03-18T07:13:48;99602.26;;;23.22;45.79
63708;BME280;67643;-34.198;22.084;2023-03-18T07:16:17;99601.91;;;23.65;46.37
63708;BME280;67643;-34.198;22.084;2023-03-18T07:18:45;99608.10;;;23.73;45.99
63708;BME280;67643;-34.198;22.084;2023-03-18T07:21:14;99614.27;;;23.40;46.05
63708;BME280;67643;-34.198;22.084;2023-03-18T07:23:42;99617.87;;;23.59;46.49
63708;BME280;67643;-34.198;22.084;2023-03-18T07:26:11;99618.86;;;23.39;46.53
63708;BME280;67643;-34.198;22.084;2023-03-18T07:28:39;99616.63;;;23.54;46.16
63708;BME280;67643;-34.198;22.084;2023-03-18T07:31:07;99611.99;;;23.65;46.07
63708;BME280;67643;-34.198;22.084;2023-03-18T07:33:36;99613.18;;;23.74;45.53
63708;BME280;67643;-34.198;22.084;2023-03-18T07:36:05;99621.37;;;23.77;45.73
63708;BME280;67643;-34.198;22.084;2023-03-18T07:38:33;99624.33;;;23.70;46.17
63708;BME280;67643;-34.198;22.084;2023-03-18T07:41:02;99623.53;;;23.86;46.16
63708;BME280;67643;-34.198;22.084;2023-03-18T07:43:30;99625.83;;;23.80;46.22
63708;BME280;67643;-34.198;22.084;2023-03-18T07:45:58;99628.03;;;23.66;45.90
63708;BME280;67643;-34.198;22.084;2023-03-18T07:48:27;99630.60;;;24.06;45.89
63708;BME280;67643;-34.198;22.084;2023-03-18T07:50:55;99639.40;;;23.84;46.02
63708;BME280;67643;-34.198;22.084;2023-03-18T07:53:24;99646.25;;;23.63;46.45
63708;BME280;67643;-34.198;22.084;2023-03-18T07:55:52;99643.53;;;23.87;46.34
63708;BME280;67643;-34.198;22.084;2023-03-18T07:58:21;99646.16;;;24.20;45.89
63708;BME280;67643;-34.198;22.084;2023-03-18T08:00:50;99650.36;;;24.28;45.71
63708;BME280;67643;-34.198;22.084;2023-03-18T08:03:20;99651.94;;;24.27;45.24
63708;BME280;67643;-34.198;22.084;2023-03-18T08:05:48;99654.64;;;24.38;45.04
63708;BME280;67643;-34.198;22.084;2023-03-18T08:08:16;99655.86;;;24.53;44.55
63708;BME280;67643;-34.198;22.084;2023-03-18T08:10:44;99653.75;;;24.44;44.58
63708;BME280;67643;-34.198;22.084;2023-03-18T08:13:13;99652.88;;;23.42;45.80
63708;BME280;67643;-34.198;22.084;2023-03-18T08:15:41;99654.54;;;24.55;44.29
63708;BME280;67643;-34.198;22.084;2023-03-18T08:18:10;99654.92;;;24.16;44.56
63708;BME280;67643;-34.198;22.084;2023-03-18T08:20:39;99653.48;;;24.31;45.09
63708;BME280;67643;-34.198;22.084;2023-03-18T08:23:07;99656.53;;;24.41;44.37
63708;BME280;67643;-34.198;22.084;2023-03-18T08:25:36;99655.78;;;24.46;44.56
63708;BME280;67643;-34.198;22.084;2023-03-18T08:28:05;99655.68;;;24.31;43.74
63708;BME280;67643;-34.198;22.084;2023-03-18T08:30:33;99652.57;;;24.81;43.39
63708;BME280;67643;-34.198;22.084;2023-03-18T08:33:02;99656.67;;;24.89;43.42
63708;BME280;67643;-34.198;22.084;2023-03-18T08:35:30;99666.08;;;24.74;42.81
63708;BME280;67643;-34.198;22.084;2023-03-18T08:37:59;99666.93;;;24.74;42.71
63708;BME280;67643;-34.198;22.084;2023-03-18T08:40:27;99670.82;;;24.30;43.54
63708;BME280;67643;-34.198;22.084;2023-03-18T08:42:55;99669.02;;;24.37;43.18
63708;BME280;67643;-34.198;22.084;2023-03-18T08:45:24;99667.48;;;24.65;42.42
63708;BME280;67643;-34.198;22.084;2023-03-18T08:47:52;99671.78;;;24.93;42.22
63708;BME280;67643;-34.198;22.084;2023-03-18T08:50:22;99665.02;;;24.10;42.81
63708;BME280;67643;-34.198;22.084;2023-03-18T08:52:50;99662.38;;;24.71;42.16
63708;BME280;67643;-34.198;22.084;2023-03-18T08:55:19;99663.35;;;24.06;43.10
63708;BME280;67643;-34.198;22.084;2023-03-18T08:57:47;99657.70;;;24.40;43.06
63708;BME280;67643;-34.198;22.084;2023-03-18T09:00:16;99657.82;;;24.64;42.66
63708;BME280;67643;-34.198;22.084;2023-03-18T09:02:45;99662.71;;;24.34;42.88
63708;BME280;67643;-34.198;22.084;2023-03-18T09:05:13;99664.04;;;24.58;43.01
63708;BME280;67643;-34.198;22.084;2023-03-18T09:07:42;99658.61;;;24.58;42.28
63708;BME280;67643;-34.198;22.084;2023-03-18T09:10:11;99656.33;;;25.30;41.95
63708;BME280;67643;-34.198;22.084;2023-03-18T09:12:40;99652.61;;;24.61;42.38
63708;BME280;67643;-34.198;22.084;2023-03-18T09:15:10;99643.20;;;25.05;41.95
63708;BME280;67643;-34.198;22.084;2023-03-18T09:17:39;99644.88;;;25.25;41.70
63708;BME280;67643;-34.198;22.084;2023-03-18T09:20:10;99649.55;;;24.83;42.31
63708;BME280;67643;-34.198;22.084;2023-03-18T09:22:40;99653.17;;;24.67;42.32
63708;BME280;67643;-34.198;22.084;2023-03-18T09:25:10;99643.32;;;24.61;42.66
63708;BME280;67643;-34.198;22.084;2023-03-18T09:27:38;99634.62;;;24.85;42.09
63708;BME280;67643;-34.198;22.084;2023-03-18T09:30:08;99637.41;;;24.84;42.43
63708;BME280;67643;-34.198;22.084;2023-03-18T09:32:37;99642.01;;;24.52;42.36
63708;BME280;67643;-34.198;22.084;2023-03-18T09:35:06;99645.81;;;25.23;41.76
63708;BME280;67643;-34.198;22.084;2023-03-18T09:37:35;99648.36;;;24.80;42.06
63708;BME280;67643;-34.198;22.084;2023-03-18T09:40:06;99645.98;;;24.92;42.06
63708;BME280;67643;-34.198;22.084;2023-03-18T09:42:44;99635.12;;;24.99;41.70
63708;BME280;67643;-34.198;22.084;2023-03-18T09:45:20;99646.65;;;24.88;41.99
63708;BME280;67643;-34.198;22.084;2023-03-18T09:48:04;99650.59;;;25.04;41.51
63708;BME280;67643;-34.198;22.084;2023-03-18T09:50:41;99639.15;;;24.63;42.02
63708;BME280;67643;-34.198;22.084;2023-03-18T09:53:17;99642.23;;;24.43;42.02
63708;BME280;67643;-34.198;22.084;2023-03-18T09:55:51;99638.96;;;24.17;42.64
63708;BME280;67643;-34.198;22.084;2023-03-18T09:58:25;99643.35;;;24.38;42.22
63708;BME280;67643;-34.198;22.084;2023-03-18T10:00:59;99638.81;;;24.37;42.34
63708;BME280;67643;-34.198;22.084;2023-03-18T12:05:49;99678.38;;;22.31;52.33
63708;BME280;67643;-34.198;22.084;2023-03-18T12:08:31;99673.83;;;23.62;47.86
63708;BME280;67643;-34.198;22.084;2023-03-18T12:11:08;99675.34;;;24.61;45.93
63708;BME280;67643;-34.198;22.084;2023-03-18T12:13:49;99679.00;;;24.69;44.78
63708;BME280;67643;-34.198;22.084;2023-03-18T12:16:27;99675.00;;;25.19;43.66
63708;BME280;67643;-34.198;22.084;2023-03-18T12:19:10;99671.34;;;25.13;43.66
63708;BME280;67643;-34.198;22.084;2023-03-18T12:21:59;99675.47;;;25.25;43.97
63708;BME280;67643;-34.198;22.084;2023-03-18T12:24:52;99680.10;;;25.31;43.51
63708;BME280;67643;-34.198;22.084;2023-03-18T12:27:35;99682.77;;;25.43;43.51
63708;BME280;67643;-34.198;22.084;2023-03-18T12:30:17;99681.57;;;25.79;42.83
63708;BME280;67643;-34.198;22.084;2023-03-18T12:32:53;99682.07;;;25.48;42.80
63708;BME280;67643;-34.198;22.084;2023-03-18T12:35:37;99681.77;;;24.77;43.65
63708;BME280;67643;-34.198;22.084;2023-03-18T12:38:31;99684.96;;;24.71;44.00
63708;BME280;67643;-34.198;22.084;2023-03-18T12:41:10;99687.13;;;25.10;43.59
63708;BME280;67643;-34.198;22.084;2023-03-18T12:43:58;99689.11;;;25.08;43.56
63708;BME280;67643;-34.198;22.084;2023-03-18T12:46:32;99696.85;;;24.94;43.47
63708;BME280;67643;-34.198;22.084;2023-03-18T12:49:10;99695.38;;;24.97;43.28
63708;BME280;67643;-34.198;22.084;2023-03-18T12:51:46;99691.18;;;24.17;44.69
63708;BME280;67643;-34.198;22.084;2023-03-18T12:54:21;99690.92;;;24.54;43.69
63708;BME280;67643;-34.198;22.084;2023-03-18T12:56:55;99693.26;;;24.92;43.88
63708;BME280;67643;-34.198;22.084;2023-03-18T12:59:33;99688.63;;;24.78;43.22
63708;BME280;67643;-34.198;22.084;2023-03-18T13:02:18;99689.24;;;25.19;43.29
63708;BME280;67643;-34.198;22.084;2023-03-18T13:04:52;99691.04;;;24.56;43.42
63708;BME280;67643;-34.198;22.084;2023-03-18T13:07:29;99687.12;;;24.28;43.94
63708;BME280;67643;-34.198;22.084;2023-03-18T13:10:12;99687.30;;;24.92;43.72
63708;BME280;67643;-34.198;22.084;2023-03-18T13:12:47;99694.45;;;24.86;43.62
63708;BME280;67643;-34.198;22.084;2023-03-18T13:15:24;99693.16;;;24.79;43.78
63708;BME280;67643;-34.198;22.084;2023-03-18T13:17:58;99692.15;;;24.73;43.88
63708;BME280;67643;-34.198;22.084;2023-03-18T13:20:31;99694.92;;;25.02;43.74
63708;BME280;67643;-34.198;22.084;2023-03-18T13:23:20;99691.88;;;24.23;44.28
63708;BME280;67643;-34.198;22.084;2023-03-18T13:26:03;99685.71;;;24.12;45.29
63708;BME280;67643;-34.198;22.084;2023-03-18T13:28:45;99688.82;;;24.19;44.70
63708;BME280;67643;-34.198;22.084;2023-03-18T13:31:23;99695.12;;;23.48;45.20
63708;BME280;67643;-34.198;22.084;2023-03-18T13:34:08;99687.51;;;23.90;44.43
63708;BME280;67643;-34.198;22.084;2023-03-18T13:36:59;99685.88;;;24.39;43.17
63708;BME280;67643;-34.198;22.084;2023-03-18T13:39:44;99688.34;;;24.44;43.00
63708;BME280;67643;-34.198;22.084;2023-03-18T13:42:21;99687.80;;;24.53;42.38
63708;BME280;67643;-34.198;22.084;2023-03-18T13:45:00;99686.55;;;24.42;42.45
63708;BME280;67643;-34.198;22.084;2023-03-18T13:47:33;99685.28;;;24.94;41.55
63708;BME280;67643;-34.198;22.084;2023-03-18T13:50:06;99684.81;;;25.20;41.80
63708;BME280;67643;-34.198;22.084;2023-03-18T13:52:54;99690.38;;;24.60;41.87
63708;BME280;67643;-34.198;22.084;2023-03-18T13:55:29;99694.80;;;24.68;42.03
63708;BME280;67643;-34.198;22.084;2023-03-18T13:58:20;99695.23;;;24.44;42.18
63708;BME280;67643;-34.198;22.084;2023-03-18T14:01:15;99690.91;;;24.82;41.72
63708;BME280;67643;-34.198;22.084;2023-03-18T14:03:58;99693.11;;;24.75;41.79
63708;BME280;67643;-34.198;22.084;2023-03-18T14:06:46;99694.48;;;24.82;42.15
63708;BME280;67643;-34.198;22.084;2023-03-18T14:09:31;99690.68;;;25.00;42.03
63708;BME280;67643;-34.198;22.084;2023-03-18T14:12:21;99694.25;;;25.30;41.28
63708;BME280;67643;-34.198;22.084;2023-03-18T14:15:35;99688.88;;;25.14;41.33
63708;BME280;67643;-34.198;22.084;2023-03-18T14:18:24;99684.78;;;25.30;40.63
63708;BME280;67643;-34.198;22.084;2023-03-18T14:20:58;99682.09;;;25.67;40.50
63708;BME280;67643;-34.198;22.084;2023-03-18T14:23:36;99682.31;;;24.81;41.39
63708;BME280;67643;-34.198;22.084;2023-03-18T14:26:16;99684.76;;;25.84;40.24
63708;BME280;67643;-34.198;22.084;2023-03-18T14:28:47;99693.43;;;25.24;41.02
63708;BME280;67643;-34.198;22.084;2023-03-18T14:31:31;99695.58;;;25.76;40.19
63708;BME280;67643;-34.198;22.084;2023-03-18T14:34:23;99703.78;;;25.28;40.23
63708;BME280;67643;-34.198;22.084;2023-03-18T14:37:26;99706.10;;;25.46;40.18
63708;BME280;67643;-34.198;22.084;2023-03-18T14:40:00;99705.20;;;24.93;40.95
63708;BME280;67643;-34.198;22.084;2023-03-18T14:42:38;99707.74;;;24.48;41.38
63708;BME280;67643;-34.198;22.084;2023-03-18T14:45:18;99714.98;;;24.89;40.75
63708;BME280;67643;-34.198;22.084;2023-03-18T14:47:49;99713.46;;;24.57;41.16
63708;BME280;67643;-34.198;22.084;2023-03-18T14:50:27;99710.05;;;25.04;40.69
63708;BME280;67643;-34.198;22.084;2023-03-18T14:53:01;99718.77;;;25.00;40.72
63708;BME280;67643;-34.198;22.084;2023-03-18T14:55:32;99725.75;;;24.36;41.37
63708;BME280;67643;-34.198;22.084;2023-03-18T14:58:02;99722.67;;;24.63;41.40
63708;BME280;67643;-34.198;22.084;2023-03-18T15:00:33;99721.98;;;24.29;41.47
63708;BME280;67643;-34.198;22.084;2023-03-18T15:03:06;99720.74;;;24.70;41.05
63708;BME280;67643;-34.198;22.084;2023-03-18T15:05:37;99730.36;;;24.79;40.90
63708;BME280;67643;-34.198;22.084;2023-03-18T15:08:11;99730.28;;;24.32;41.19
63708;BME280;67643;-34.198;22.084;2023-03-18T15:10:42;99726.68;;;24.42;41.10
63708;BME280;67643;-34.198;22.084;2023-03-18T15:13:15;99725.81;;;24.73;40.65
63708;BME280;67643;-34.198;22.084;2023-03-18T15:15:44;99725.68;;;24.68;41.07
63708;BME280;67643;-34.198;22.084;2023-03-18T15:18:22;99730.85;;;24.80;40.58
63708;BME280;67643;-34.198;22.084;2023-03-18T15:20:54;99735.72;;;25.11;40.42
63708;BME280;67643;-34.198;22.084;2023-03-18T15:23:28;99740.53;;;24.68;40.63
63708;BME280;67643;-34.198;22.084;2023-03-18T15:25:57;99742.19;;;24.48;40.84
63708;BME280;67643;-34.198;22.084;2023-03-18T15:28:28;99742.26;;;24.68;41.03
63708;BME280;67643;-34.198;22.084;2023-03-18T15:30:57;99742.32;;;24.68;40.61
63708;BME280;67643;-34.198;22.084;2023-03-18T15:33:33;99742.88;;;24.92;40.87
63708;BME280;67643;-34.198;22.084;2023-03-18T15:36:05;99747.14;;;24.74;40.45
63708;BME280;67643;-34.198;22.084;2023-03-18T15:38:34;99753.28;;;24.55;41.12
63708;BME280;67643;-34.198;22.084;2023-03-18T15:41:04;99755.44;;;24.15;41.30
63708;BME280;67643;-34.198;22.084;2023-03-18T15:43:38;99754.25;;;24.61;40.64
63708;BME280;67643;-34.198;22.084;2023-03-18T15:46:15;99755.20;;;25.03;40.44
63708;BME280;67643;-34.198;22.084;2023-03-18T15:48:48;99754.68;;;24.36;41.00
63708;BME280;67643;-34.198;22.084;2023-03-18T15:51:27;99762.74;;;24.08;41.44
63708;BME280;67643;-34.198;22.084;2023-03-18T15:53:58;99762.68;;;24.14;41.70
63708;BME280;67643;-34.198;22.084;2023-03-18T15:56:32;99765.73;;;23.93;41.80
63708;BME280;67643;-34.198;22.084;2023-03-18T15:59:09;99767.41;;;24.28;41.63
63708;BME280;67643;-34.198;22.084;2023-03-18T16:01:40;99770.41;;;24.12;41.70
63708;BME280;67643;-34.198;22.084;2023-03-18T16:04:12;99771.74;;;24.37;41.45
63708;BME280;67643;-34.198;22.084;2023-03-18T16:06:42;99771.19;;;24.42;41.77
63708;BME280;67643;-34.198;22.084;2023-03-18T16:09:15;99770.80;;;24.16;42.00
63708;BME280;67643;-34.198;22.084;2023-03-18T16:11:47;99770.47;;;24.25;41.85